Pagina principale
METAR-TAF:

METAR-TAF

Aeroporti :

Aeroporto di Rimini-Miramare

Rimini, Italia

latitudine: 44-02N, longitudine: 012-37E, altezza: 12 m

Osservazione

Il bollettino è stato emesso 39 minuti fa, alle 14:50 UTC
Vento 8 kt da nord/nord-est, variando fra nord e est/nord-est
Temperature 27°C
Umidità 51%
Pressione 1012 hPa
Visibilità 10 km o più
Poco nuvoloso ad un'altezza di 4000 ft

METAR: LIPR 131450Z 02008KT 350V070 9999 FEW040 27/16 Q1012

Ora: 17:29 (15:29 UTC)

Previsione

Il bollettino è stato emesso 4 ore e 29 minuti fa, alle 11:00 UTC
Previsione valida dal 13 alle 12 UTC al 14 alle 12 UTC
Vento 8 kt da nord
Visibilità 10 km o più
Nubi sparse ad un'altezza di 6000 ft
Evoluzione graduale
dal 13 alle 18 UTC al 13 alle 20 UTC
Vento 5 kt da direzioni variabili
Evoluzione graduale
dal 14 alle 08 UTC al 14 alle 10 UTC
Vento 10 kt da est

TAF: LIPR 131100Z 1312/1412 35008KT 9999 SCT060 BECMG 1318/1320 VRB05KT BECMG 1408/1410 10010KT

Osservazioni e previsioni meteorologiche di più di 4000 aeroporti (messaggi METAR e TAF).

Le stazioni disponibili sono rappresentate dai dischi gialli e rossi sulla carta.

Puntare il mouse per vedere il nome della stazione.

Clicca sopra per visualizzare le osservazioni e previsioni meteorologiche.

Per cambiare la mappa : fare clic sui pulsanti verdi con una croce nera per ingrandire, il pulsante verde con un trattino per diminuire, o sulla freccia verde per le mappe adiacenti.


METAR-TAF: